createdAt,value
2017-06-25T00:00:09.102Z,11.97
2017-06-25T00:02:36.572Z,10.93
2017-06-25T00:05:04.017Z,12.10
2017-06-25T00:07:31.467Z,11.17
2017-06-25T00:09:59.684Z,12.87
2017-06-25T00:12:27.117Z,11.67
2017-06-25T00:14:54.559Z,12.23
2017-06-25T00:17:22.008Z,13.87
2017-06-25T00:19:49.448Z,13.97
2017-06-25T00:22:16.894Z,17.53
2017-06-25T00:24:44.332Z,15.60
2017-06-25T00:27:12.053Z,12.73
2017-06-25T00:29:39.472Z,12.50
2017-06-25T00:32:07.677Z,13.00
2017-06-25T00:34:35.115Z,11.93
2017-06-25T00:37:02.563Z,13.20
2017-06-25T00:39:30.015Z,11.73
2017-06-25T00:41:57.455Z,12.27
2017-06-25T00:44:24.907Z,12.20
2017-06-25T00:46:52.344Z,11.60
2017-06-25T00:49:19.886Z,12.50
2017-06-25T00:51:47.356Z,12.73
2017-06-25T00:54:29.676Z,13.33
2017-06-25T00:56:57.871Z,14.53
2017-06-25T00:59:25.314Z,13.40
2017-06-25T01:01:52.749Z,13.13
2017-06-25T01:04:20.190Z,12.70
2017-06-25T01:06:47.686Z,12.23
2017-06-25T01:09:15.138Z,12.67
2017-06-25T01:11:42.583Z,13.50
2017-06-25T01:14:10.022Z,12.00
2017-06-25T01:16:37.453Z,11.80
2017-06-25T01:19:04.904Z,12.27
2017-06-25T01:21:33.127Z,12.67
2017-06-25T01:24:00.571Z,15.37
2017-06-25T01:26:28.014Z,13.57
2017-06-25T01:28:55.451Z,14.27
2017-06-25T01:31:22.894Z,15.30
2017-06-25T01:33:50.336Z,14.87
2017-06-25T01:36:17.767Z,14.87
2017-06-25T01:38:45.208Z,13.93
2017-06-25T01:41:12.704Z,16.33
2017-06-25T01:43:40.140Z,16.73
2017-06-25T01:46:07.585Z,17.53
2017-06-25T01:48:35.017Z,17.40
2017-06-25T01:51:02.460Z,23.00
2017-06-25T01:53:29.891Z,19.80
2017-06-25T01:55:57.332Z,17.33
2017-06-25T01:58:24.764Z,18.30
2017-06-25T02:00:52.204Z,18.37
2017-06-25T02:03:19.656Z,18.97
2017-06-25T02:05:47.097Z,17.87
2017-06-25T02:08:14.536Z,18.73
2017-06-25T02:10:41.973Z,19.83
2017-06-25T02:13:09.412Z,20.13
2017-06-25T02:15:36.856Z,18.23
2017-06-25T02:18:04.317Z,18.17
2017-06-25T02:20:31.740Z,22.30
2017-06-25T02:22:59.188Z,21.03
2017-06-25T02:25:26.622Z,21.83
2017-06-25T02:27:54.060Z,21.73
2017-06-25T02:30:21.489Z,21.67
2017-06-25T02:32:48.933Z,22.33
2017-06-25T02:35:16.366Z,22.97
2017-06-25T02:37:43.795Z,21.93
2017-06-25T02:40:12.004Z,24.13
2017-06-25T02:42:39.444Z,23.97
2017-06-25T02:45:06.916Z,22.90
2017-06-25T02:47:34.344Z,21.53
2017-06-25T02:50:01.785Z,22.20
2017-06-25T02:52:29.228Z,21.37
2017-06-25T02:54:56.668Z,21.47
2017-06-25T02:57:24.112Z,21.50
2017-06-25T02:59:51.546Z,22.67
2017-06-25T03:02:18.983Z,21.77
2017-06-25T03:04:46.424Z,21.20
2017-06-25T03:07:13.869Z,22.70
2017-06-25T03:09:50.081Z,22.97
2017-06-25T03:12:17.522Z,22.77
2017-06-25T03:14:45.739Z,23.07
2017-06-25T03:17:14.021Z,20.67
2017-06-25T03:19:41.460Z,22.13
2017-06-25T03:22:08.900Z,21.73
2017-06-25T03:24:36.332Z,24.17
2017-06-25T03:27:03.776Z,22.70
2017-06-25T03:29:31.216Z,21.47
2017-06-25T03:31:58.652Z,22.17
2017-06-25T03:34:26.091Z,22.87
2017-06-25T03:36:53.532Z,22.50
2017-06-25T03:39:21.095Z,22.90
2017-06-25T03:41:48.524Z,22.03
2017-06-25T03:44:15.970Z,21.97
2017-06-25T03:46:43.414Z,23.40
2017-06-25T03:49:10.845Z,22.23
2017-06-25T03:51:38.280Z,22.93
2017-06-25T03:54:05.721Z,20.60
2017-06-25T03:56:33.160Z,21.73
2017-06-25T03:59:00.607Z,21.57
2017-06-25T04:01:28.048Z,20.80
2017-06-25T04:03:55.490Z,20.60
2017-06-25T04:06:22.993Z,23.83
2017-06-25T04:08:50.423Z,23.43
2017-06-25T04:11:18.641Z,21.70
2017-06-25T04:13:46.082Z,22.67
2017-06-25T04:16:13.522Z,22.00
2017-06-25T04:18:40.968Z,22.57
2017-06-25T04:21:08.413Z,21.87
2017-06-25T04:23:35.852Z,23.13
2017-06-25T04:26:03.304Z,21.93
2017-06-25T04:28:30.735Z,21.23
2017-06-25T04:30:58.196Z,22.33
2017-06-25T04:33:25.633Z,20.90
2017-06-25T04:35:53.076Z,21.73
2017-06-25T04:38:20.512Z,21.60
2017-06-25T04:40:47.949Z,31.77
2017-06-25T04:43:15.388Z,21.77
2017-06-25T04:45:42.829Z,22.00
2017-06-25T04:48:10.276Z,20.10
2017-06-25T04:50:37.712Z,20.13
2017-06-25T04:53:05.161Z,18.97
2017-06-25T04:55:32.598Z,21.53
2017-06-25T04:58:00.038Z,23.37
2017-06-25T05:00:27.497Z,18.63
2017-06-25T05:02:54.954Z,21.00
2017-06-25T05:05:22.408Z,20.43
2017-06-25T05:07:49.842Z,20.47
2017-06-25T05:10:17.304Z,21.27
2017-06-25T05:12:44.757Z,20.60
2017-06-25T05:15:12.956Z,31.23
2017-06-25T05:17:40.395Z,20.70
2017-06-25T05:20:07.843Z,19.80
2017-06-25T05:22:35.276Z,19.53
2017-06-25T05:25:02.721Z,20.30
2017-06-25T05:27:30.228Z,20.70
2017-06-25T05:29:58.451Z,19.03
2017-06-25T05:32:25.912Z,19.30
2017-06-25T05:34:54.140Z,20.10
2017-06-25T05:37:21.576Z,19.43
2017-06-25T05:39:49.012Z,18.03
2017-06-25T05:42:16.478Z,19.07
2017-06-25T05:44:43.914Z,25.10
2017-06-25T05:47:11.344Z,18.17
2017-06-25T05:49:38.788Z,17.67
2017-06-25T05:52:06.276Z,25.60
2017-06-25T05:54:33.720Z,19.67
2017-06-25T05:57:01.160Z,23.77
2017-06-25T05:59:28.587Z,18.93
2017-06-25T06:01:56.032Z,18.47
2017-06-25T06:04:23.468Z,16.67
2017-06-25T06:06:50.913Z,17.80
2017-06-25T06:09:18.486Z,17.80
2017-06-25T06:11:46.012Z,16.43
2017-06-25T06:14:13.453Z,17.93
2017-06-25T06:16:40.888Z,17.13
2017-06-25T06:19:08.331Z,14.77
2017-06-25T06:21:35.780Z,15.23
2017-06-25T06:24:03.212Z,14.40
2017-06-25T06:26:30.656Z,15.20
2017-06-25T06:28:58.104Z,15.30
2017-06-25T06:31:25.541Z,13.50
2017-06-25T06:33:53.020Z,14.93
2017-06-25T06:36:21.215Z,13.60
2017-06-25T06:38:48.680Z,13.53
2017-06-25T06:41:16.216Z,13.53
2017-06-25T06:43:43.740Z,16.47
2017-06-25T06:46:11.173Z,11.97
2017-06-25T06:48:38.636Z,12.00
2017-06-25T06:51:06.080Z,11.23
2017-06-25T06:53:33.528Z,12.07
2017-06-25T06:56:00.976Z,11.93
2017-06-25T06:58:28.410Z,11.17
2017-06-25T07:00:55.840Z,12.90
2017-06-25T07:03:23.279Z,16.70
2017-06-25T07:05:50.720Z,11.43
2017-06-25T07:08:18.381Z,12.20
2017-06-25T07:10:45.812Z,11.73
2017-06-25T07:13:13.249Z,13.90
2017-06-25T07:15:40.692Z,13.00
2017-06-25T07:18:08.120Z,10.60
2017-06-25T07:20:35.559Z,12.00
2017-06-25T07:23:03.004Z,12.57
2017-06-25T07:25:30.449Z,10.40
2017-06-25T07:27:57.883Z,9.80
2017-06-25T07:30:25.311Z,9.90
2017-06-25T07:32:53.547Z,9.40
2017-06-25T07:35:20.993Z,10.27
2017-06-25T07:37:48.428Z,9.83
2017-06-25T07:40:15.856Z,9.20
2017-06-25T07:42:43.282Z,9.47
2017-06-25T07:45:10.728Z,10.43
2017-06-25T07:47:38.160Z,10.43
2017-06-25T07:50:05.609Z,9.60
2017-06-25T07:52:33.156Z,13.17
2017-06-25T07:55:00.584Z,10.63
2017-06-25T07:57:28.025Z,10.40
2017-06-25T07:59:55.558Z,9.33
2017-06-25T08:02:23.760Z,12.80
2017-06-25T08:04:51.188Z,7.90
2017-06-25T08:07:18.620Z,9.97
2017-06-25T08:09:46.124Z,9.57
2017-06-25T08:12:13.557Z,9.67
2017-06-25T08:14:40.996Z,10.07
2017-06-25T08:17:08.427Z,9.93
2017-06-25T08:19:36.873Z,10.17
2017-06-25T08:22:04.389Z,11.37
2017-06-25T08:24:31.830Z,10.93
2017-06-25T08:27:00.038Z,12.10
2017-06-25T08:29:27.480Z,11.20
2017-06-25T08:31:54.918Z,13.60
2017-06-25T08:34:22.347Z,10.30
2017-06-25T08:36:49.788Z,15.53
2017-06-25T08:39:17.220Z,10.00
2017-06-25T08:41:44.680Z,10.87
2017-06-25T08:44:12.133Z,10.80
2017-06-25T08:46:39.564Z,12.87
2017-06-25T08:49:07.003Z,10.70
2017-06-25T08:51:34.453Z,10.33
2017-06-25T08:54:01.894Z,10.37
2017-06-25T08:56:29.332Z,41.23
2017-06-25T08:58:56.765Z,12.47
2017-06-25T09:01:24.222Z,10.50
2017-06-25T09:03:51.652Z,9.67
2017-06-25T09:06:19.079Z,9.70
2017-06-25T09:08:46.579Z,10.13
2017-06-25T09:11:14.004Z,9.80
2017-06-25T09:13:41.444Z,10.07
2017-06-25T09:16:08.871Z,11.23
2017-06-25T09:18:36.303Z,10.40
2017-06-25T09:21:03.753Z,9.00
2017-06-25T09:23:32.028Z,8.50
2017-06-25T09:25:59.487Z,8.60
2017-06-25T09:28:26.912Z,8.60
2017-06-25T09:30:54.340Z,8.77
2017-06-25T09:33:21.790Z,7.77
2017-06-25T09:35:49.234Z,11.63
2017-06-25T09:38:16.664Z,9.30
2017-06-25T09:40:44.110Z,9.00
2017-06-25T09:43:11.536Z,8.10
2017-06-25T09:45:38.968Z,9.10
2017-06-25T09:48:06.403Z,9.20
2017-06-25T09:50:33.836Z,9.10
2017-06-25T09:53:02.053Z,9.83
2017-06-25T09:55:29.504Z,8.43
2017-06-25T09:57:56.944Z,8.93
2017-06-25T10:00:24.380Z,8.70
2017-06-25T10:02:52.482Z,8.80
2017-06-25T10:05:19.892Z,8.23
2017-06-25T10:07:47.336Z,8.70
2017-06-25T10:10:14.780Z,7.37
2017-06-25T10:12:42.211Z,7.93
2017-06-25T10:15:09.644Z,8.87
2017-06-25T10:17:37.071Z,7.77
2017-06-25T10:20:04.511Z,8.70
2017-06-25T10:22:31.937Z,9.50
2017-06-25T10:24:59.372Z,10.57
2017-06-25T10:27:27.579Z,8.33
2017-06-25T10:29:55.023Z,7.37
2017-06-25T10:32:22.488Z,8.97
2017-06-25T10:34:49.956Z,8.67
2017-06-25T10:37:18.153Z,6.97
2017-06-25T10:39:45.587Z,7.20
2017-06-25T10:42:13.021Z,7.07
2017-06-25T10:44:40.454Z,6.47
2017-06-25T10:47:08.654Z,6.87
2017-06-25T10:49:36.104Z,6.43
2017-06-25T10:52:03.542Z,6.93
2017-06-25T10:54:31.049Z,9.43
2017-06-25T10:56:59.860Z,6.37
2017-06-25T10:59:27.316Z,7.83
2017-06-25T11:01:54.760Z,7.50
2017-06-25T11:04:22.236Z,6.80
2017-06-25T11:06:50.428Z,6.80
2017-06-25T11:09:17.877Z,7.17
2017-06-25T11:11:45.303Z,7.30
2017-06-25T11:14:12.743Z,7.57
2017-06-25T11:16:40.172Z,7.27
2017-06-25T11:19:08.377Z,6.47
2017-06-25T11:21:35.820Z,7.73
2017-06-25T11:24:03.267Z,9.00
2017-06-25T11:26:30.691Z,9.90
2017-06-25T11:28:58.152Z,7.17
2017-06-25T11:31:25.595Z,7.20
2017-06-25T11:33:53.023Z,8.33
2017-06-25T11:36:20.471Z,7.37
2017-06-25T11:38:47.903Z,7.20
2017-06-25T11:41:15.338Z,7.93
2017-06-25T11:43:42.772Z,14.10
2017-06-25T11:46:10.216Z,7.50
2017-06-25T11:48:37.823Z,7.90
2017-06-25T11:51:05.280Z,7.77
2017-06-25T11:53:32.708Z,5.63
2017-06-25T11:56:00.140Z,8.70
2017-06-25T11:58:27.590Z,7.30
2017-06-25T12:00:55.024Z,7.03
2017-06-25T12:03:22.475Z,5.60
2017-06-25T12:05:49.889Z,6.63
2017-06-25T12:08:17.332Z,6.03
2017-06-25T12:10:44.768Z,5.43
2017-06-25T12:13:12.204Z,6.73
2017-06-25T12:15:39.637Z,5.00
2017-06-25T12:18:07.075Z,5.97
2017-06-25T12:20:34.517Z,4.43
2017-06-25T12:23:01.946Z,5.33
2017-06-25T12:25:29.390Z,5.40
2017-06-25T12:27:56.835Z,4.50
2017-06-25T12:30:25.033Z,5.40
2017-06-25T12:32:52.463Z,4.10
2017-06-25T12:35:19.898Z,5.77
2017-06-25T12:37:47.328Z,5.37
2017-06-25T12:40:14.765Z,4.73
2017-06-25T12:42:42.208Z,4.67
2017-06-25T12:45:09.651Z,4.43
2017-06-25T12:47:37.096Z,4.97
2017-06-25T12:50:04.528Z,5.07
2017-06-25T12:52:31.971Z,6.00
2017-06-25T12:55:00.192Z,8.90
2017-06-25T12:57:27.636Z,4.17
2017-06-25T12:59:55.124Z,4.33
2017-06-25T13:02:23.513Z,5.57
2017-06-25T13:04:50.948Z,5.70
2017-06-25T13:07:18.374Z,4.53
2017-06-25T13:09:45.901Z,4.63
2017-06-25T13:12:14.110Z,4.27
2017-06-25T13:14:41.650Z,4.50
2017-06-25T13:17:09.074Z,4.97
2017-06-25T13:19:36.504Z,4.90
2017-06-25T13:22:03.954Z,5.17
2017-06-25T13:24:31.376Z,5.07
2017-06-25T13:26:59.584Z,3.83
2017-06-25T13:29:27.028Z,11.70
2017-06-25T13:31:54.464Z,6.97
2017-06-25T13:34:21.892Z,4.13
2017-06-25T13:36:49.336Z,6.03
2017-06-25T13:39:16.763Z,4.87
2017-06-25T13:41:44.193Z,4.60
2017-06-25T13:44:12.418Z,4.93
2017-06-25T13:46:39.849Z,6.03
2017-06-25T13:49:07.536Z,4.70
2017-06-25T13:51:35.720Z,4.67
2017-06-25T13:54:03.170Z,7.83
2017-06-25T13:56:30.732Z,4.20
2017-06-25T13:58:58.156Z,4.43
2017-06-25T14:01:25.588Z,5.93
2017-06-25T14:03:53.628Z,6.00
2017-06-25T14:06:21.842Z,4.77
2017-06-25T14:08:49.285Z,4.27
2017-06-25T14:11:16.745Z,4.63
2017-06-25T14:13:44.176Z,4.87
2017-06-25T14:16:11.628Z,4.07
2017-06-25T14:18:39.060Z,4.60
2017-06-25T14:21:06.512Z,4.60
2017-06-25T14:23:33.947Z,4.87
2017-06-25T14:26:01.390Z,4.50
2017-06-25T14:28:28.831Z,4.30
2017-06-25T14:30:56.350Z,4.37
2017-06-25T14:33:23.785Z,4.27
2017-06-25T14:35:51.222Z,4.60
2017-06-25T14:38:18.656Z,4.73
2017-06-25T14:40:46.865Z,4.57
2017-06-25T14:43:14.310Z,5.13
2017-06-25T14:45:41.743Z,6.13
2017-06-25T14:48:09.181Z,6.83
2017-06-25T14:50:36.694Z,5.60
2017-06-25T14:53:04.140Z,5.47
2017-06-25T14:55:31.592Z,5.70
2017-06-25T14:57:59.036Z,5.13
2017-06-25T15:00:26.476Z,6.17
2017-06-25T15:02:54.009Z,5.40
2017-06-25T15:05:21.451Z,5.93
2017-06-25T15:07:48.896Z,6.27
2017-06-25T15:10:16.333Z,4.70
2017-06-25T15:12:43.768Z,5.47
2017-06-25T15:15:11.235Z,5.80
2017-06-25T15:17:38.680Z,5.00
2017-06-25T15:20:06.107Z,4.70
2017-06-25T15:22:33.593Z,5.30
2017-06-25T15:25:01.027Z,4.90
2017-06-25T15:27:28.476Z,5.00
2017-06-25T15:29:55.952Z,4.60
2017-06-25T15:32:23.368Z,5.30
2017-06-25T15:34:50.812Z,4.53
2017-06-25T15:37:18.240Z,5.13
2017-06-25T15:39:45.715Z,4.90
2017-06-25T15:42:13.933Z,4.73
2017-06-25T15:44:41.359Z,5.70
2017-06-25T15:47:08.805Z,6.10
2017-06-25T15:49:36.232Z,4.90
2017-06-25T15:52:03.683Z,5.90
2017-06-25T15:54:31.136Z,5.90
2017-06-25T15:56:58.580Z,7.27
2017-06-25T15:59:26.014Z,6.33
2017-06-25T16:01:53.453Z,5.23
2017-06-25T16:04:20.930Z,5.87
2017-06-25T16:06:48.376Z,4.80
2017-06-25T16:09:15.821Z,5.10
2017-06-25T16:11:43.276Z,5.10
2017-06-25T16:14:10.703Z,5.30
2017-06-25T16:16:38.135Z,7.53
2017-06-25T16:19:05.569Z,5.60
2017-06-25T16:21:32.999Z,5.43
2017-06-25T16:24:00.436Z,6.23
2017-06-25T16:26:27.998Z,5.30
2017-06-25T16:28:55.444Z,4.53
2017-06-25T16:31:22.888Z,7.23
2017-06-25T16:33:50.567Z,5.17
2017-06-25T16:36:17.979Z,4.97
2017-06-25T16:38:45.434Z,5.80
2017-06-25T16:41:12.900Z,5.80
2017-06-25T16:43:40.371Z,5.20
2017-06-25T16:46:08.571Z,4.40
2017-06-25T16:48:36.000Z,4.80
2017-06-25T16:51:03.436Z,5.50
2017-06-25T16:53:30.863Z,5.40
2017-06-25T16:55:58.312Z,9.60
2017-06-25T16:58:25.739Z,6.23
2017-06-25T17:00:53.179Z,4.80
2017-06-25T17:03:21.380Z,4.77
2017-06-25T17:05:48.820Z,4.60
2017-06-25T17:08:16.268Z,4.27
2017-06-25T17:10:43.697Z,4.60
2017-06-25T17:13:11.151Z,3.90
2017-06-25T17:15:38.594Z,5.47
2017-06-25T17:18:06.035Z,3.60
2017-06-25T17:20:33.465Z,4.70
2017-06-25T17:23:00.892Z,3.70
2017-06-25T17:25:28.331Z,3.87
2017-06-25T17:27:55.764Z,3.20
2017-06-25T17:30:23.205Z,4.50
2017-06-25T17:32:51.444Z,4.00
2017-06-25T17:35:18.907Z,4.03
2017-06-25T17:37:47.100Z,3.20
2017-06-25T17:40:14.532Z,4.83
2017-06-25T17:42:41.997Z,3.53
2017-06-25T17:45:09.421Z,3.50
2017-06-25T17:47:36.864Z,3.60
2017-06-25T17:52:38.276Z,3.47
2017-06-25T17:55:06.471Z,4.87
2017-06-25T17:57:33.907Z,3.37
2017-06-25T18:00:01.374Z,3.90
2017-06-25T18:02:28.808Z,3.40
2017-06-25T18:04:56.248Z,4.07
2017-06-25T18:07:23.680Z,5.17
2017-06-25T18:09:51.128Z,5.40
2017-06-25T18:12:18.561Z,5.13
2017-06-25T18:14:45.993Z,3.60
2017-06-25T18:17:13.441Z,4.27
2017-06-25T18:19:40.880Z,4.33
2017-06-25T18:22:08.319Z,5.67
2017-06-25T18:24:35.769Z,5.63
2017-06-25T18:27:03.303Z,6.60
2017-06-25T18:29:31.501Z,3.83
2017-06-25T18:31:58.964Z,4.93
2017-06-25T18:34:26.436Z,3.20
2017-06-25T18:36:54.685Z,3.70
2017-06-25T18:39:22.120Z,7.07
2017-06-25T18:41:49.569Z,4.30
2017-06-25T18:44:17.012Z,3.57
2017-06-25T18:46:44.448Z,4.63
2017-06-25T18:49:11.888Z,4.37
2017-06-25T18:51:39.331Z,4.00
2017-06-25T18:54:06.762Z,4.67
2017-06-25T18:56:34.191Z,3.73
2017-06-25T18:59:01.628Z,3.63
2017-06-25T19:01:29.087Z,3.90
2017-06-25T19:03:56.519Z,5.77
2017-06-25T19:06:23.964Z,4.40
2017-06-25T19:08:51.396Z,4.73
2017-06-25T19:11:18.827Z,4.10
2017-06-25T19:13:46.270Z,5.40
2017-06-25T19:16:13.700Z,4.90
2017-06-25T19:18:41.152Z,4.07
2017-06-25T19:21:08.584Z,4.50
2017-06-25T19:23:36.003Z,3.80
2017-06-25T19:26:03.449Z,4.60
2017-06-25T19:28:31.640Z,4.50
2017-06-25T19:30:59.076Z,3.90
2017-06-25T19:33:26.508Z,4.30
2017-06-25T19:35:53.969Z,4.23
2017-06-25T19:38:21.409Z,4.20
2017-06-25T19:40:48.834Z,4.80
2017-06-25T19:43:16.264Z,4.23
2017-06-25T19:45:43.808Z,4.03
2017-06-25T19:48:12.093Z,3.30
2017-06-25T19:50:39.526Z,5.07
2017-06-25T19:53:07.012Z,5.50
2017-06-25T19:55:34.439Z,3.70
2017-06-25T19:58:01.876Z,4.03
2017-06-25T20:00:29.376Z,4.87
2017-06-25T20:02:57.568Z,3.90
2017-06-25T20:05:25.003Z,3.90
2017-06-25T20:07:52.444Z,4.00
2017-06-25T20:10:20.071Z,4.10
2017-06-25T20:12:47.496Z,4.57
2017-06-25T20:15:14.936Z,4.27
2017-06-25T20:17:42.362Z,5.40
2017-06-25T20:20:09.824Z,5.80
2017-06-25T20:22:37.388Z,3.80
2017-06-25T20:25:05.584Z,5.23
2017-06-25T20:27:33.024Z,4.23
2017-06-25T20:30:00.461Z,6.73
2017-06-25T20:32:27.920Z,4.03
2017-06-25T20:34:55.352Z,4.53
2017-06-25T20:37:22.840Z,3.80
2017-06-25T20:39:50.316Z,3.50
2017-06-25T20:42:18.508Z,7.30
2017-06-25T20:44:45.956Z,4.70
2017-06-25T20:47:13.860Z,7.90
2017-06-25T20:49:42.077Z,13.10
2017-06-25T20:52:09.508Z,8.20
2017-06-25T20:54:36.942Z,4.90
2017-06-25T20:57:04.394Z,4.90
2017-06-25T20:59:31.901Z,4.17
2017-06-25T21:02:00.136Z,3.10
2017-06-25T21:04:27.593Z,3.80
2017-06-25T21:06:55.038Z,3.63
2017-06-25T21:09:23.252Z,5.30
2017-06-25T21:11:50.717Z,4.00
2017-06-25T21:14:18.168Z,31.77
2017-06-25T21:16:45.604Z,6.50
2017-06-25T21:19:13.084Z,6.77
2017-06-25T21:21:41.279Z,8.10
2017-06-25T21:24:08.774Z,5.83
2017-06-25T21:26:36.192Z,4.43
2017-06-25T21:29:03.636Z,4.27
2017-06-25T21:31:31.093Z,4.33
2017-06-25T21:33:58.635Z,3.87
2017-06-25T21:36:26.063Z,4.03
2017-06-25T21:38:53.487Z,4.33
2017-06-25T21:41:21.746Z,5.70
2017-06-25T21:43:49.169Z,4.87
2017-06-25T21:46:16.668Z,19.30
2017-06-25T21:48:44.095Z,5.33
2017-06-25T21:51:11.621Z,5.10
2017-06-25T21:53:39.060Z,4.80
2017-06-25T21:56:06.532Z,4.90
2017-06-25T21:58:33.971Z,3.90
2017-06-25T22:01:01.405Z,5.03
2017-06-25T22:03:28.849Z,4.73
2017-06-25T22:05:56.318Z,3.80
2017-06-25T22:08:23.760Z,5.53
2017-06-25T22:10:51.264Z,4.13
2017-06-25T22:13:18.691Z,7.60
2017-06-25T22:15:46.136Z,4.83
2017-06-25T22:18:13.576Z,4.43
2017-06-25T22:20:41.139Z,4.63
2017-06-25T22:23:08.682Z,5.43
2017-06-25T22:25:36.104Z,5.53
2017-06-25T22:28:03.567Z,4.90
2017-06-25T22:30:31.085Z,5.63
2017-06-25T22:32:58.520Z,4.20
2017-06-25T22:35:26.019Z,4.73
2017-06-25T22:37:53.465Z,4.13
2017-06-25T22:40:20.916Z,3.77
2017-06-25T22:42:48.351Z,7.10
2017-06-25T22:45:15.804Z,3.87
2017-06-25T22:47:43.335Z,4.10
2017-06-25T22:50:10.794Z,3.83
2017-06-25T22:52:38.216Z,3.90
2017-06-25T22:55:05.677Z,3.60
2017-06-25T22:57:33.107Z,3.87
2017-06-25T23:00:00.552Z,4.00
2017-06-25T23:02:27.992Z,4.97
2017-06-25T23:04:55.548Z,4.30
2017-06-25T23:07:23.101Z,3.30
2017-06-25T23:09:51.306Z,3.93
2017-06-25T23:12:18.740Z,3.70
2017-06-25T23:14:46.179Z,4.33
2017-06-25T23:17:14.080Z,4.50
2017-06-25T23:19:41.540Z,3.90
2017-06-25T23:22:08.988Z,5.93
2017-06-25T23:24:36.421Z,4.43
2017-06-25T23:27:03.861Z,5.50
2017-06-25T23:29:31.310Z,4.13
2017-06-25T23:31:58.732Z,4.30
2017-06-25T23:34:26.172Z,4.40
2017-06-25T23:36:53.613Z,4.37
2017-06-25T23:39:21.040Z,5.30
2017-06-25T23:41:48.480Z,4.00
2017-06-25T23:44:16.002Z,6.10
2017-06-25T23:46:43.444Z,5.00
2017-06-25T23:49:10.878Z,5.03
2017-06-25T23:51:38.299Z,6.73
2017-06-25T23:54:06.512Z,5.73
2017-06-25T23:56:33.979Z,5.20
2017-06-25T23:59:01.420Z,5.00
